KSPD

Comanche National Grassland Airport

Springfield, Colorado, USA
METAR KSPD 170056Z AUTO 15009KT 01/M09 A3030 RMK AO1 SLP274 T00061089
Observed Flight Rules
Dec-17 @ 00:56 UTC (48 minutes ago)
Wind
150° at 9 knots
Temperatures Readings
Current 1°C / 34°F
Dewpoint -9°C / 16°F
Humidity 48%
Altimeter 30.3" Hg
Pressure 1027.4 hPa
Elevation 1335
METAR KSPD 170056Z AUTO 15009KT 01/M09 A3030 RMK AO1 SLP274 T00061089
Observed Flight Rules
Dec-17 @ 00:56 UTC
(48 minutes ago)
Wind
150° at 9 knots
Temperature Dewpoint
1°C / 34°F -9°C / 16°F
Humidity Altimeter Pressure
48% 30.3" Hg 1027.4 hPa